Time;durP1;ratioP1;P1;durP2;ratioP2;P2;SDS_P1;SDS_P2;PMS_P1;PMS_P2;Temp;Humidity;BMP_temperature;BMP_pressure;BME280_temperature;BME280_humidity;BME280_pressure;Samples;Min_cycle;Max_cycle;Signal;HPM_P1;HPM_P2
2022/09/22 00:02:27;;;;;;;;;;;10.30;99.90;;;;;;8422503;28;20294;-79
2022/09/22 00:06:30;;;;;;;;;;;10.30;99.90;;;;;;8420903;28;19928;-79
2022/09/22 00:10:32;;;;;;;;;;;10.20;99.90;;;;;;8425179;28;19930;-79
2022/09/22 00:14:33;;;;;;;;;;;10.20;99.90;;;;;;8424196;28;19924;-79
2022/09/22 00:18:35;;;;;;;;;;;10.20;99.90;;;;;;8427552;28;19935;-79
2022/09/22 00:22:37;;;;;;;;;;;10.20;99.90;;;;;;8419993;28;19927;-79
2022/09/22 00:26:39;;;;;;;;;;;10.10;99.90;;;;;;8414339;28;19928;-79
2022/09/22 00:30:41;;;;;;;;;;;10.10;99.90;;;;;;8427654;28;20301;-79
2022/09/22 00:34:43;;;;;;;;;;;10.10;99.90;;;;;;8417537;28;20367;-79
2022/09/22 00:38:45;;;;;;;;;;;10.10;99.90;;;;;;8418698;28;19938;-79
2022/09/22 00:42:48;;;;;;;;;;;10.00;99.90;;;;;;8425259;28;19935;-79
2022/09/22 00:46:52;;;;;;;;;;;10.00;99.90;;;;;;8418075;28;19934;-79
2022/09/22 00:50:55;;;;;;;;;;;10.00;99.90;;;;;;8417963;28;19988;-79
2022/09/22 00:54:59;;;;;;;;;;;9.90;99.90;;;;;;8425920;28;19924;-79
2022/09/22 00:59:03;;;;;;;;;;;9.90;99.90;;;;;;8410589;28;20259;-79
2022/09/22 01:03:06;;;;;;;;;;;9.80;99.90;;;;;;8416416;28;19924;-79
2022/09/22 01:07:09;;;;;;;;;;;9.80;99.90;;;;;;8416791;28;19938;-79
2022/09/22 01:11:12;;;;;;;;;;;9.70;99.90;;;;;;8419311;28;20015;-79
2022/09/22 01:15:16;;;;;;;;;;;9.70;99.90;;;;;;8421884;28;19920;-78
2022/09/22 01:19:37;;;;;;;;;;;9.70;99.90;;;;;;8412416;28;20011;-79
2022/09/22 01:24:04;;;;;;;;;;;9.60;99.90;;;;;;8422944;28;19926;-79
2022/09/22 01:28:28;;;;;;;;;;;9.60;99.90;;;;;;8442936;27;19923;-79
2022/09/22 01:32:38;;;;;;;;;;;9.50;99.90;;;;;;8426533;28;19926;-79
2022/09/22 01:36:45;;;;;;;;;;;9.50;99.90;;;;;;8422223;28;19931;-79
2022/09/22 01:40:57;;;;;;;;;;;9.50;99.90;;;;;;8452301;27;19919;-79
2022/09/22 01:45:09;;;;;;;;;;;9.50;99.90;;;;;;8427072;28;19919;-79
2022/09/22 01:49:13;;;;;;;;;;;9.50;99.90;;;;;;8449313;27;20299;-78
2022/09/22 01:53:17;;;;;;;;;;;9.40;99.90;;;;;;8410775;28;20370;-79
2022/09/22 01:57:25;;;;;;;;;;;9.40;99.90;;;;;;8409476;28;19920;-79
2022/09/22 02:01:32;;;;;;;;;;;9.30;99.90;;;;;;8413481;28;19924;-79
2022/09/22 02:05:42;;;;;;;;;;;9.30;99.90;;;;;;8450733;27;19924;-79
2022/09/22 02:09:44;;;;;;;;;;;9.30;99.90;;;;;;8419775;28;19926;-79
2022/09/22 02:13:46;;;;;;;;;;;9.30;99.90;;;;;;8414297;28;19924;-79
2022/09/22 02:17:47;;;;;;;;;;;9.20;99.90;;;;;;8417650;28;19930;-79
2022/09/22 02:21:49;;;;;;;;;;;9.20;99.90;;;;;;8416132;28;20298;-79
2022/09/22 02:25:52;;;;;;;;;;;9.20;99.90;;;;;;8422055;28;20379;-79
2022/09/22 02:29:56;;;;;;;;;;;9.10;99.90;;;;;;8421377;28;19920;-79
2022/09/22 02:33:58;;;;;;;;;;;9.10;99.90;;;;;;8424766;28;19927;-79
2022/09/22 02:38:00;;;;;;;;;;;9.10;99.90;;;;;;8417683;28;20381;-78
2022/09/22 02:52:42;;;;;;;;;;;9.00;99.90;;;;;;8424301;28;19927;-79
2022/09/22 02:56:44;;;;;;;;;;;8.90;99.90;;;;;;8437890;27;19924;-79
2022/09/22 03:00:46;;;;;;;;;;;8.90;99.90;;;;;;8412246;28;20010;-79
2022/09/22 03:04:49;;;;;;;;;;;8.90;99.90;;;;;;8409908;28;19920;-78
2022/09/22 03:08:51;;;;;;;;;;;8.90;99.90;;;;;;8410522;28;19947;-79
2022/09/22 03:12:52;;;;;;;;;;;8.80;99.90;;;;;;8422624;28;19931;-79
2022/09/22 03:17:14;;;;;;;;;;;8.80;99.90;;;;;;8415866;28;19920;-79
2022/09/22 03:21:16;;;;;;;;;;;8.80;99.90;;;;;;8430811;28;20010;-79
2022/09/22 03:25:18;;;;;;;;;;;8.80;99.90;;;;;;8418137;28;19937;-79
2022/09/22 03:29:19;;;;;;;;;;;8.70;99.90;;;;;;8413838;28;19920;-79
2022/09/22 03:33:21;;;;;;;;;;;8.70;99.90;;;;;;8429510;28;19920;-79
2022/09/22 03:37:22;;;;;;;;;;;8.70;99.90;;;;;;8415255;28;20275;-79
2022/09/22 03:41:24;;;;;;;;;;;8.70;99.90;;;;;;8414167;28;19924;-79
2022/09/22 03:45:26;;;;;;;;;;;8.70;99.90;;;;;;8422015;28;19928;-79
2022/09/22 03:49:28;;;;;;;;;;;8.60;99.90;;;;;;8422688;28;19981;-79
2022/09/22 03:53:30;;;;;;;;;;;8.60;99.90;;;;;;8417962;28;19926;-79
2022/09/22 03:57:31;;;;;;;;;;;8.60;99.90;;;;;;8420705;28;19926;-79
2022/09/22 04:06:37;;;;;;;;;;;8.50;99.90;;;;;;8398143;28;19922;-79
2022/09/22 04:10:39;;;;;;;;;;;8.50;99.90;;;;;;8420310;28;19923;-79
2022/09/22 04:14:41;;;;;;;;;;;8.40;99.90;;;;;;8414626;28;19920;-79
2022/09/22 04:18:42;;;;;;;;;;;8.40;99.90;;;;;;8413203;28;19935;-78
2022/09/22 04:22:44;;;;;;;;;;;8.40;99.90;;;;;;8416999;28;20237;-79
2022/09/22 04:26:45;;;;;;;;;;;8.40;99.90;;;;;;8418089;28;20428;-79
2022/09/22 04:31:07;;;;;;;;;;;8.40;99.90;;;;;;8404047;28;20341;-79
2022/09/22 04:35:09;;;;;;;;;;;8.40;99.90;;;;;;8423477;28;20317;-79
2022/09/22 04:39:10;;;;;;;;;;;8.30;99.90;;;;;;8417944;28;19920;-79
2022/09/22 04:43:12;;;;;;;;;;;8.40;99.90;;;;;;8400092;28;19924;-79
2022/09/22 04:47:13;;;;;;;;;;;8.40;99.90;;;;;;8409205;28;19928;-79
2022/09/22 04:51:15;;;;;;;;;;;8.30;99.90;;;;;;8421013;28;19924;-79
2022/09/22 04:55:17;;;;;;;;;;;8.30;99.90;;;;;;8425745;28;19920;-79
2022/09/22 04:59:19;;;;;;;;;;;8.20;99.90;;;;;;8425444;28;19919;-79
2022/09/22 05:03:20;;;;;;;;;;;8.20;99.90;;;;;;8415113;28;20370;-79
2022/09/22 05:07:22;;;;;;;;;;;8.20;99.90;;;;;;8444181;27;19920;-79
2022/09/22 05:11:24;;;;;;;;;;;8.10;99.90;;;;;;8422797;28;19927;-79
2022/09/22 05:15:26;;;;;;;;;;;8.10;99.90;;;;;;8422422;28;20066;-79
2022/09/22 05:19:28;;;;;;;;;;;8.10;99.90;;;;;;8411228;28;19920;-79
2022/09/22 05:23:31;;;;;;;;;;;8.00;99.90;;;;;;8420878;28;19959;-79
2022/09/22 05:27:32;;;;;;;;;;;8.00;99.90;;;;;;8446337;27;19976;-79
2022/09/22 05:31:34;;;;;;;;;;;8.00;99.90;;;;;;8444303;28;19946;-79
2022/09/22 05:35:35;;;;;;;;;;;8.00;99.90;;;;;;8436696;28;20306;-79
2022/09/22 05:39:37;;;;;;;;;;;8.00;99.90;;;;;;8402212;28;19920;-79
2022/09/22 05:43:39;;;;;;;;;;;8.00;99.90;;;;;;8437568;28;20014;-79
2022/09/22 05:47:41;;;;;;;;;;;8.00;99.90;;;;;;8443329;28;20287;-79
2022/09/22 05:51:42;;;;;;;;;;;7.90;99.90;;;;;;8431461;28;20261;-79
2022/09/22 05:55:44;;;;;;;;;;;8.00;99.90;;;;;;8460387;27;19924;-78
2022/09/22 05:59:46;;;;;;;;;;;8.00;99.90;;;;;;8416216;28;20375;-79
2022/09/22 06:03:47;;;;;;;;;;;8.00;99.90;;;;;;8433418;28;19928;-79
2022/09/22 06:07:58;;;;;;;;;;;8.00;99.90;;;;;;8428902;28;19919;-79
2022/09/22 06:12:00;;;;;;;;;;;8.00;99.90;;;;;;8452946;28;20328;-79
2022/09/22 06:16:02;;;;;;;;;;;8.10;99.90;;;;;;8435023;28;19949;-79
2022/09/22 06:20:03;;;;;;;;;;;8.20;99.90;;;;;;8413516;28;20000;-79
2022/09/22 06:24:05;;;;;;;;;;;8.30;99.90;;;;;;8423351;28;19920;-79
2022/09/22 06:28:10;;;;;;;;;;;8.30;99.90;;;;;;8447691;28;19967;-79
2022/09/22 06:32:12;;;;;;;;;;;8.40;99.90;;;;;;8469559;27;19923;-79
2022/09/22 06:36:21;;;;;;;;;;;8.50;99.90;;;;;;8445210;28;19930;-79
2022/09/22 06:40:24;;;;;;;;;;;8.60;99.90;;;;;;8419595;28;20007;-79
2022/09/22 06:44:26;;;;;;;;;;;8.80;99.90;;;;;;8430260;28;19943;-79
2022/09/22 06:48:27;;;;;;;;;;;9.00;99.90;;;;;;8443027;28;20022;-79
2022/09/22 06:52:29;;;;;;;;;;;9.10;99.90;;;;;;8425373;28;20342;-79
2022/09/22 06:56:41;;;;;;;;;;;9.30;99.90;;;;;;8446662;28;19919;-79
2022/09/22 07:00:43;;;;;;;;;;;9.40;99.90;;;;;;8443282;28;19925;-79
2022/09/22 07:04:47;;;;;;;;;;;9.50;99.90;;;;;;8421351;28;20286;-78
2022/09/22 07:13:52;;;;;;;;;;;9.80;99.90;;;;;;8395060;28;20474;-78
2022/09/22 07:17:54;;;;;;;;;;;10.00;99.90;;;;;;8411563;28;20748;-79
2022/09/22 07:21:56;;;;;;;;;;;10.10;99.90;;;;;;8406123;28;20265;-79
2022/09/22 07:25:59;;;;;;;;;;;10.20;99.90;;;;;;8406332;28;20398;-79
2022/09/22 07:30:02;;;;;;;;;;;10.30;99.90;;;;;;8405851;28;20348;-79
2022/09/22 07:34:03;;;;;;;;;;;10.50;99.90;;;;;;8397630;28;19924;-79
2022/09/22 07:38:05;;;;;;;;;;;10.60;99.90;;;;;;8401170;28;19921;-79
2022/09/22 07:42:07;;;;;;;;;;;10.70;99.90;;;;;;8403280;28;20007;-79
2022/09/22 07:46:08;;;;;;;;;;;10.80;99.90;;;;;;8406606;28;19920;-79
2022/09/22 07:50:10;;;;;;;;;;;10.90;99.90;;;;;;8400990;28;19928;-79
2022/09/22 07:54:11;;;;;;;;;;;11.10;99.90;;;;;;8400873;28;19920;-79
2022/09/22 07:58:13;;;;;;;;;;;11.20;99.90;;;;;;8397515;28;20290;-78
2022/09/22 08:02:19;;;;;;;;;;;11.30;99.90;;;;;;8399352;28;19959;-79
2022/09/22 08:06:21;;;;;;;;;;;11.40;99.90;;;;;;8398294;28;20383;-79
2022/09/22 08:10:24;;;;;;;;;;;11.60;99.90;;;;;;8401282;28;19970;-78
2022/09/22 08:14:26;;;;;;;;;;;11.70;99.90;;;;;;8396052;28;19947;-79
2022/09/22 08:18:28;;;;;;;;;;;11.90;99.90;;;;;;8405298;28;19931;-79
2022/09/22 08:22:30;;;;;;;;;;;12.00;99.90;;;;;;8397764;28;20383;-79
2022/09/22 08:26:32;;;;;;;;;;;12.10;99.90;;;;;;8400020;28;19924;-79
2022/09/22 08:30:34;;;;;;;;;;;12.30;99.90;;;;;;8400643;28;19938;-79
2022/09/22 08:34:36;;;;;;;;;;;12.50;99.90;;;;;;8395636;28;20387;-79
2022/09/22 08:53:11;;;;;;;;;;;13.10;99.90;;;;;;8395732;28;19924;-79
2022/09/22 08:57:22;;;;;;;;;;;13.30;99.90;;;;;;8395845;28;19951;-79
2022/09/22 09:01:29;;;;;;;;;;;13.40;99.90;;;;;;8398019;28;19924;-78
2022/09/22 09:05:56;;;;;;;;;;;13.50;99.90;;;;;;8398857;28;19928;-79
2022/09/22 09:10:07;;;;;;;;;;;13.50;99.90;;;;;;8430192;27;19932;-79
2022/09/22 09:14:12;;;;;;;;;;;13.60;99.90;;;;;;8404167;28;19925;-79
2022/09/22 09:18:16;;;;;;;;;;;13.80;99.90;;;;;;8397771;28;19924;-79
2022/09/22 09:22:23;;;;;;;;;;;13.90;99.90;;;;;;8391840;28;19928;-79
2022/09/22 09:26:26;;;;;;;;;;;14.10;99.90;;;;;;8393043;28;19928;-79
2022/09/22 09:30:31;;;;;;;;;;;14.20;99.90;;;;;;8396614;28;20360;-79
2022/09/22 09:34:33;;;;;;;;;;;14.30;99.90;;;;;;8402050;28;20002;-79
2022/09/22 09:38:38;;;;;;;;;;;14.40;99.90;;;;;;8393528;28;19942;-79
2022/09/22 09:42:41;;;;;;;;;;;14.50;99.90;;;;;;8395818;28;19924;-79
2022/09/22 09:46:52;;;;;;;;;;;14.60;99.90;;;;;;8394623;28;19997;-79
2022/09/22 09:50:54;;;;;;;;;;;14.80;99.90;;;;;;8399492;28;19931;-79
2022/09/22 09:54:55;;;;;;;;;;;14.90;99.90;;;;;;8395337;28;20305;-79
2022/09/22 10:03:25;;;;;;;;;;;15.10;99.90;;;;;;8394146;28;20322;-79
2022/09/22 10:07:29;;;;;;;;;;;15.10;99.90;;;;;;8394016;28;19928;-79
2022/09/22 10:11:31;;;;;;;;;;;15.20;99.90;;;;;;8399081;28;19963;-79
2022/09/22 10:15:34;;;;;;;;;;;15.30;99.90;;;;;;8393207;28;20027;-78
2022/09/22 10:19:36;;;;;;;;;;;15.40;99.90;;;;;;8400264;28;19932;-79
2022/09/22 10:23:39;;;;;;;;;;;15.50;99.90;;;;;;8403341;28;20359;-78
2022/09/22 10:27:42;;;;;;;;;;;15.60;99.90;;;;;;8404909;28;19924;-78
2022/09/22 10:32:04;;;;;;;;;;;15.70;99.90;;;;;;8397338;28;19933;-79
2022/09/22 10:36:06;;;;;;;;;;;15.80;99.90;;;;;;8395669;28;19924;-78
2022/09/22 10:40:13;;;;;;;;;;;15.90;99.90;;;;;;8395759;28;20437;-78
2022/09/22 10:44:19;;;;;;;;;;;15.90;99.90;;;;;;8402076;28;20019;-79
2022/09/22 10:48:43;;;;;;;;;;;16.00;99.90;;;;;;8401089;28;19933;-79
2022/09/22 10:52:53;;;;;;;;;;;16.10;99.90;;;;;;8408846;28;20437;-78
2022/09/22 10:56:58;;;;;;;;;;;16.20;99.90;;;;;;8410872;28;19931;-79
2022/09/22 11:01:05;;;;;;;;;;;16.30;99.90;;;;;;8408066;28;20278;-79
2022/09/22 11:05:07;;;;;;;;;;;16.40;99.90;;;;;;8407122;28;19924;-78
2022/09/22 11:14:01;;;;;;;;;;;16.60;99.90;;;;;;8409285;28;20302;-79
2022/09/22 11:18:18;;;;;;;;;;;16.70;99.90;;;;;;8409927;28;19931;-79
2022/09/22 11:22:39;;;;;;;;;;;16.80;99.90;;;;;;8404342;28;20364;-79
2022/09/22 11:26:52;;;;;;;;;;;16.90;99.90;;;;;;8401905;28;19934;-79
2022/09/22 11:30:57;;;;;;;;;;;17.00;99.90;;;;;;8408459;28;20011;-79
2022/09/22 11:34:59;;;;;;;;;;;17.00;99.90;;;;;;8394853;28;19932;-78
2022/09/22 11:39:39;;;;;;;;;;;17.10;99.90;;;;;;8396441;28;19930;-78
2022/09/22 11:43:46;;;;;;;;;;;17.20;99.90;;;;;;8354703;28;20036;-78
2022/09/22 11:48:00;;;;;;;;;;;17.30;99.90;;;;;;8353952;28;20352;-78
2022/09/22 11:52:21;;;;;;;;;;;17.50;99.90;;;;;;8398066;28;20276;-78
2022/09/22 11:56:36;;;;;;;;;;;17.50;99.90;;;;;;8404711;28;19928;-79
2022/09/22 12:00:44;;;;;;;;;;;17.50;99.90;;;;;;8397856;28;19958;-80
2022/09/22 12:04:48;;;;;;;;;;;17.50;99.90;;;;;;8396024;28;19928;-78
2022/09/22 12:08:52;;;;;;;;;;;17.60;99.90;;;;;;8407909;28;20279;-78
2022/09/22 12:13:00;;;;;;;;;;;17.60;99.90;;;;;;8403208;28;19938;-78
2022/09/22 12:17:12;;;;;;;;;;;17.60;99.90;;;;;;8399241;28;19931;-78
2022/09/22 12:21:17;;;;;;;;;;;17.70;99.90;;;;;;8395312;28;19932;-77
2022/09/22 12:25:39;;;;;;;;;;;17.70;99.90;;;;;;8397484;28;20107;-77
2022/09/22 12:29:53;;;;;;;;;;;17.70;99.90;;;;;;8401994;28;19954;-78
2022/09/22 12:33:55;;;;;;;;;;;17.70;99.90;;;;;;8398140;28;19928;-78
2022/09/22 12:37:59;;;;;;;;;;;17.80;99.90;;;;;;8409276;28;19931;-78
2022/09/22 12:42:03;;;;;;;;;;;17.90;99.90;;;;;;8393881;28;20026;-79
2022/09/22 12:46:15;;;;;;;;;;;17.90;99.90;;;;;;8393215;28;19966;-79
2022/09/22 12:50:22;;;;;;;;;;;17.90;99.90;;;;;;8399453;28;19932;-77
2022/09/22 12:54:25;;;;;;;;;;;17.90;99.90;;;;;;8396793;28;19932;-78
2022/09/22 12:58:26;;;;;;;;;;;17.90;99.90;;;;;;8400765;28;19928;-78
2022/09/22 13:02:29;;;;;;;;;;;17.90;99.90;;;;;;8396383;28;19924;-79
2022/09/22 13:06:31;;;;;;;;;;;18.00;99.90;;;;;;8397871;28;20333;-78
2022/09/22 13:10:32;;;;;;;;;;;18.10;99.90;;;;;;8393945;28;19930;-77
2022/09/22 13:14:53;;;;;;;;;;;18.10;99.90;;;;;;8399263;28;19934;-78
2022/09/22 13:18:58;;;;;;;;;;;18.30;99.90;;;;;;8400064;28;19928;-78
2022/09/22 13:23:12;;;;;;;;;;;18.30;99.90;;;;;;8394893;28;20299;-78
2022/09/22 13:27:14;;;;;;;;;;;18.40;99.90;;;;;;8395887;28;19925;-78
2022/09/22 13:31:16;;;;;;;;;;;18.50;99.90;;;;;;8395740;28;19924;-78
2022/09/22 13:35:29;;;;;;;;;;;18.50;99.90;;;;;;8393630;28;19924;-78
2022/09/22 13:39:32;;;;;;;;;;;18.50;99.90;;;;;;8399670;28;20290;-78
2022/09/22 13:43:38;;;;;;;;;;;18.60;99.90;;;;;;8404069;28;19928;-78
2022/09/22 13:47:41;;;;;;;;;;;18.70;99.90;;;;;;8400830;28;20004;-78
2022/09/22 13:51:47;;;;;;;;;;;18.80;99.90;;;;;;8403418;28;20010;-77
2022/09/22 13:55:49;;;;;;;;;;;18.90;99.90;;;;;;8394736;28;20359;-77
2022/09/22 13:59:51;;;;;;;;;;;19.00;99.90;;;;;;8396239;28;20387;-78
2022/09/22 14:03:54;;;;;;;;;;;19.10;99.90;;;;;;8397612;28;19928;-78
2022/09/22 14:07:56;;;;;;;;;;;19.30;99.90;;;;;;8402617;28;20398;-77
2022/09/22 14:12:17;;;;;;;;;;;19.40;99.90;;;;;;8396786;28;19924;-78
2022/09/22 14:16:21;;;;;;;;;;;19.60;99.90;;;;;;8394217;28;20364;-78
2022/09/22 14:20:22;;;;;;;;;;;19.80;99.90;;;;;;8405537;28;19932;-78
2022/09/22 14:24:25;;;;;;;;;;;20.10;99.90;;;;;;8398555;28;19932;-78
2022/09/22 14:28:28;;;;;;;;;;;20.10;99.90;;;;;;8402078;28;19932;-78
2022/09/22 14:32:30;;;;;;;;;;;20.10;99.90;;;;;;8403980;28;19928;-77
2022/09/22 14:36:31;;;;;;;;;;;20.00;99.90;;;;;;8399310;28;19966;-78
2022/09/22 14:40:34;;;;;;;;;;;19.90;99.90;;;;;;8400654;28;19928;-78
2022/09/22 14:44:49;;;;;;;;;;;19.90;99.90;;;;;;8426799;27;19925;-77
2022/09/22 14:48:50;;;;;;;;;;;19.90;99.90;;;;;;8401404;28;20392;-77
2022/09/22 14:52:52;;;;;;;;;;;19.90;99.90;;;;;;8406466;28;20375;-78
2022/09/22 14:56:57;;;;;;;;;;;19.80;99.90;;;;;;8399666;28;19977;-78
2022/09/22 15:05:28;;;;;;;;;;;19.70;99.90;;;;;;8398210;28;19928;-77
2022/09/22 15:09:32;;;;;;;;;;;19.60;99.90;;;;;;8396791;28;19932;-77
2022/09/22 15:13:34;;;;;;;;;;;19.60;99.90;;;;;;8395304;28;19928;-76
2022/09/22 15:22:00;;;;;;;;;;;19.50;99.90;;;;;;8396869;28;20031;-77
2022/09/22 15:26:03;;;;;;;;;;;19.40;99.90;;;;;;8406732;28;19994;-78
2022/09/22 15:30:06;;;;;;;;;;;19.40;99.90;;;;;;8396893;28;19932;-77
2022/09/22 15:34:09;;;;;;;;;;;19.30;99.90;;;;;;8393678;28;20664;-77
2022/09/22 15:38:18;;;;;;;;;;;19.30;99.90;;;;;;8397151;28;20379;-77
2022/09/22 15:42:20;;;;;;;;;;;19.30;99.90;;;;;;8396140;28;19928;-77
2022/09/22 15:46:32;;;;;;;;;;;19.30;99.90;;;;;;8396037;28;20445;-77
2022/09/22 15:50:34;;;;;;;;;;;19.20;99.90;;;;;;8400962;28;19925;-77
2022/09/22 15:54:36;;;;;;;;;;;19.30;99.90;;;;;;8393737;28;20287;-77
2022/09/22 15:58:39;;;;;;;;;;;19.30;99.90;;;;;;8393859;28;19929;-77
2022/09/22 16:02:41;;;;;;;;;;;19.20;99.90;;;;;;8394913;28;19924;-77
2022/09/22 16:06:46;;;;;;;;;;;19.20;99.90;;;;;;8399703;28;20379;-77
2022/09/22 16:10:48;;;;;;;;;;;19.20;99.90;;;;;;8397907;28;19931;-77
2022/09/22 16:14:50;;;;;;;;;;;19.20;99.90;;;;;;8403365;28;20030;-77
2022/09/22 16:18:52;;;;;;;;;;;19.20;99.90;;;;;;8402477;28;19931;-77
2022/09/22 16:22:54;;;;;;;;;;;19.10;99.90;;;;;;8397989;28;19928;-77
2022/09/22 16:26:55;;;;;;;;;;;19.20;99.90;;;;;;8391291;28;19932;-77
2022/09/22 16:31:01;;;;;;;;;;;19.10;99.90;;;;;;8395467;28;20303;-77
2022/09/22 16:35:03;;;;;;;;;;;19.10;99.90;;;;;;8393519;28;19932;-77
2022/09/22 16:39:04;;;;;;;;;;;19.00;99.90;;;;;;8391607;28;19943;-77
2022/09/22 16:43:07;;;;;;;;;;;18.90;99.90;;;;;;8396436;28;19931;-77
2022/09/22 16:47:09;;;;;;;;;;;18.80;99.90;;;;;;8395507;28;19977;-77
2022/09/22 16:51:16;;;;;;;;;;;18.60;99.90;;;;;;8395439;28;19932;-77
2022/09/22 16:55:18;;;;;;;;;;;18.50;99.90;;;;;;8404479;28;19925;-77
2022/09/22 16:59:21;;;;;;;;;;;18.30;99.90;;;;;;8393777;28;19928;-78
2022/09/22 17:03:23;;;;;;;;;;;18.10;99.90;;;;;;8425666;27;19928;-78
2022/09/22 17:07:25;;;;;;;;;;;18.00;99.90;;;;;;8398632;28;19944;-78
2022/09/22 17:11:28;;;;;;;;;;;17.80;99.90;;;;;;8400311;28;19932;-78
2022/09/22 17:15:34;;;;;;;;;;;17.70;99.90;;;;;;8392016;28;19924;-78
2022/09/22 17:19:36;;;;;;;;;;;17.50;99.90;;;;;;8389968;28;19935;-78
2022/09/22 17:23:38;;;;;;;;;;;17.30;99.90;;;;;;8387991;28;19934;-78
2022/09/22 17:27:40;;;;;;;;;;;17.20;99.90;;;;;;8395293;28;19937;-78
2022/09/22 17:31:45;;;;;;;3.85;1.40;;;17.10;99.90;;;;;;8401390;28;20539;-78
2022/09/22 17:35:47;;;;;;;;;;;16.90;99.90;;;;;;8395264;28;19928;-78
2022/09/22 17:39:49;;;;;;;;;;;16.80;99.90;;;;;;8393333;28;19925;-79
2022/09/22 17:43:54;;;;;;;;;;;16.70;99.90;;;;;;8394671;28;19939;-79
2022/09/22 17:56:29;;;;;;;;;;;16.30;99.90;;;;;;8402640;28;19938;-79
2022/09/22 18:00:32;;;;;;;;;;;16.20;99.90;;;;;;8405331;28;20287;-79
2022/09/22 18:04:37;;;;;;;;;;;16.10;99.90;;;;;;8406231;28;19965;-79
2022/09/22 18:08:41;;;;;;;;;;;16.00;99.90;;;;;;8397934;28;19932;-80
2022/09/22 18:12:43;;;;;;;;;;;15.90;99.90;;;;;;8401318;28;19930;-79
2022/09/22 18:16:45;;;;;;;;;;;15.80;99.90;;;;;;8405790;28;19928;-79
2022/09/22 18:20:47;;;;;;;;;;;15.70;99.90;;;;;;8402471;28;19924;-78
2022/09/22 18:24:49;;;;;;;;;;;15.70;99.90;;;;;;8398531;28;19985;-80
2022/09/22 18:28:51;;;;;;;;;;;15.60;99.90;;;;;;8430050;27;19924;-79
2022/09/22 18:32:53;;;;;;;;;;;15.50;99.90;;;;;;8405641;28;19928;-80
2022/09/22 18:36:56;;;;;;;;;;;15.50;99.90;;;;;;8412762;28;20070;-80
2022/09/22 18:40:58;;;;;;;;;;;15.30;99.90;;;;;;8404798;28;19926;-78
2022/09/22 18:44:59;;;;;;;;;;;15.30;99.90;;;;;;8404402;28;19927;-80
2022/09/22 18:49:05;;;;;;;;;;;15.30;99.90;;;;;;8410656;28;19929;-79
2022/09/22 18:53:06;;;;;;;;;;;15.20;99.90;;;;;;8403961;28;19930;-80
2022/09/22 18:57:11;;;;;;;;;;;15.10;99.90;;;;;;8399764;28;19934;-79
2022/09/22 19:01:12;;;;;;;;;;;15.10;99.90;;;;;;8394667;28;19928;-79
2022/09/22 19:05:14;;;;;;;;;;;15.00;99.90;;;;;;8404589;28;20429;-79
2022/09/22 19:09:16;;;;;;;;;;;14.90;99.90;;;;;;8397411;28;19924;-79
2022/09/22 19:13:18;;;;;;;;;;;14.90;99.90;;;;;;8395490;28;20488;-79
2022/09/22 19:17:19;;;;;;;;;;;14.90;99.90;;;;;;8395748;28;19920;-79
2022/09/22 19:21:22;;;;;;;;;;;14.80;99.90;;;;;;8404957;28;22089;-79
2022/09/22 19:25:23;;;;;;;;;;;14.80;99.90;;;;;;8402411;28;19934;-79
2022/09/22 19:29:25;;;;;;;;;;;14.70;99.90;;;;;;8401828;28;19920;-80
2022/09/22 19:33:26;;;;;;;;;;;14.70;99.90;;;;;;8403697;28;19923;-79
2022/09/22 19:37:28;;;;;;;;;;;14.60;99.90;;;;;;8396457;28;19920;-80
2022/09/22 19:41:31;;;;;;;;;;;14.50;99.90;;;;;;8406819;28;19939;-79
2022/09/22 19:45:32;;;;;;;;;;;14.50;99.90;;;;;;8398502;28;19920;-80
2022/09/22 19:49:34;;;;;;;;;;;14.50;99.90;;;;;;8397964;28;19928;-79
2022/09/22 19:53:36;;;;;;;;;;;14.40;99.90;;;;;;8430545;27;20005;-79
2022/09/22 19:57:40;;;;;;;;;;;14.40;99.90;;;;;;8391619;28;20011;-80
2022/09/22 20:01:42;;;;;;;;;;;14.40;99.90;;;;;;8402223;28;19932;-80
2022/09/22 20:05:46;;;;;;;;;;;14.40;99.90;;;;;;8407204;28;19928;-80
2022/09/22 20:09:48;;;;;;;;;;;14.30;99.90;;;;;;8391795;28;20354;-80
2022/09/22 20:18:10;;;;;;;;;;;14.20;99.90;;;;;;8397004;28;20344;-80
2022/09/22 20:22:26;;;;;;;;;;;14.20;99.90;;;;;;8400654;28;19924;-80
2022/09/22 20:26:28;;;;;;;;;;;14.20;99.90;;;;;;8399554;28;20398;-79
2022/09/22 20:30:31;;;;;;;;;;;14.10;99.90;;;;;;8398521;28;19919;-79
2022/09/22 20:34:32;;;;;;;;;;;14.10;99.90;;;;;;8396694;28;20388;-80
2022/09/22 20:48:41;;;;;;;;;;;13.90;99.90;;;;;;8396471;28;19934;-80
2022/09/22 20:52:43;;;;;;;;;;;13.90;99.90;;;;;;8396985;28;19930;-79
2022/09/22 20:56:47;;;;;;;;;;;13.90;99.90;;;;;;8392633;28;19942;-80
2022/09/22 21:00:49;;;;;;;;;;;13.80;99.90;;;;;;8387361;28;19924;-80
2022/09/22 21:04:51;;;;;;;;;;;13.80;99.90;;;;;;8405058;28;19928;-79
2022/09/22 21:13:13;;;;;;;;;;;13.70;99.90;;;;;;8418334;28;19928;-80
2022/09/22 21:17:14;;;;;;;;;;;13.70;99.90;;;;;;8394221;28;19921;-79
2022/09/22 21:21:17;;;;;;;;;;;13.70;99.90;;;;;;8389064;28;19930;-80
2022/09/22 21:25:19;;;;;;;;;;;13.70;99.90;;;;;;8399391;28;19928;-79
2022/09/22 21:29:21;;;;;;;;;;;13.70;99.90;;;;;;8395788;28;19924;-79
2022/09/22 21:33:23;;;;;;;;;;;13.70;99.90;;;;;;8414749;28;20294;-80
2022/09/22 21:37:25;;;;;;;;;;;13.70;99.90;;;;;;8445403;27;19926;-80
2022/09/22 21:41:28;;;;;;;;;;;13.70;99.90;;;;;;8414061;28;20302;-80
2022/09/22 21:45:29;;;;;;;;;;;13.70;99.90;;;;;;8416517;28;19996;-80
2022/09/22 21:49:31;;;;;;;;;;;13.70;99.90;;;;;;8406329;28;19927;-80
2022/09/22 21:53:34;;;;;;;;;;;13.60;99.90;;;;;;8412131;28;19920;-80
2022/09/22 21:57:35;;;;;;;;;;;13.60;99.90;;;;;;8439390;28;20322;-80
2022/09/22 22:01:38;;;;;;;;;;;13.60;99.90;;;;;;8410424;28;20360;-79
2022/09/22 22:05:39;;;;;;;;;;;13.50;99.90;;;;;;8410945;28;19981;-80
2022/09/22 22:09:41;;;;;;;;;;;13.50;99.90;;;;;;8401534;28;20468;-80
2022/09/22 22:13:45;;;;;;;;;;;13.50;99.90;;;;;;8400131;28;19932;-79
2022/09/22 22:17:47;;;;;;;;;;;13.50;99.90;;;;;;8395090;28;19920;-80
2022/09/22 22:21:49;;;;;;;;;;;13.50;99.90;;;;;;8414317;28;20479;-79
2022/09/22 22:25:56;;;;;;;;;;;13.40;99.90;;;;;;8403539;28;19924;-80
2022/09/22 22:29:58;;;;;;;;;;;13.40;99.90;;;;;;8394619;28;20339;-80
2022/09/22 22:34:00;;;;;;;;;;;13.30;99.90;;;;;;8392903;28;20346;-80
2022/09/22 22:38:01;;;;;;;;;;;13.30;99.90;;;;;;8393203;28;20260;-80
2022/09/22 22:42:03;;;;;;;;;;;13.30;99.90;;;;;;8404264;28;19923;-79
2022/09/22 22:46:06;;;;;;;;;;;13.30;99.90;;;;;;8399794;28;19924;-80
2022/09/22 22:50:08;;;;;;;;;;;13.30;99.90;;;;;;8414891;28;19924;-80
2022/09/22 22:54:10;;;;;;;;;;;13.20;99.90;;;;;;8425308;28;19923;-79
2022/09/22 22:58:11;;;;;;;;;;;13.20;99.90;;;;;;8411336;28;20026;-79
2022/09/22 23:02:13;;;;;;;;;;;13.20;99.90;;;;;;8405025;28;21771;-79
2022/09/22 23:06:16;;;;;;;;;;;13.10;99.90;;;;;;8410823;28;20647;-79
2022/09/22 23:10:18;;;;;;;;;;;13.10;99.90;;;;;;8400676;28;20015;-79
2022/09/22 23:14:20;;;;;;;;;;;13.10;99.90;;;;;;8406036;28;19934;-80
2022/09/22 23:18:22;;;;;;;;;;;13.10;99.90;;;;;;8395504;28;19924;-79
2022/09/22 23:22:23;;;;;;;;;;;13.00;99.90;;;;;;8404606;28;19932;-79
2022/09/22 23:26:27;;;;;;;;;;;13.00;99.90;;;;;;8398506;28;19920;-79
2022/09/22 23:30:31;;;;;;;;;;;12.90;99.90;;;;;;8405855;28;19920;-80
2022/09/22 23:34:33;;;;;;;;;;;12.90;99.90;;;;;;8398494;28;19931;-80
2022/09/22 23:38:35;;;;;;;;;;;12.80;99.90;;;;;;8391883;28;19920;-80
2022/09/22 23:42:37;;;;;;;;;;;12.70;99.90;;;;;;8415156;28;19924;-80
2022/09/22 23:46:38;;;;;;;;;;;12.70;99.90;;;;;;8428772;28;19924;-80
2022/09/22 23:50:47;;;;;;;;;;;12.60;99.90;;;;;;8411598;28;20298;-79
2022/09/22 23:54:49;;;;;;;;;;;12.60;99.90;;;;;;8427595;28;21294;-80
2022/09/22 23:58:51;;;;;;;;;;;12.50;99.90;;;;;;8416695;28;19924;-79
